Time;durP1;ratioP1;P1;durP2;ratioP2;P2;SDS_P1;SDS_P2;PMS_P1;PMS_P2;Temp;Humidity;BMP_temperature;BMP_pressure;BME280_temperature;BME280_humidity;BME280_pressure;Samples;Min_cycle;Max_cycle;Signal;HPM_P1;HPM_P2
2021/10/20 00:01:20;;;;;;;23.92;11.10;;;1.70;70.20;;;;;;4958207;28;20035;-89
2021/10/20 00:03:46;;;;;;;23.52;11.90;;;1.70;70.90;;;;;;4958530;28;20035;-88
2021/10/20 00:06:12;;;;;;;22.80;10.35;;;1.70;70.60;;;;;;4975845;28;20027;-88
2021/10/20 00:08:38;;;;;;;22.80;10.00;;;1.70;70.20;;;;;;4975114;28;20027;-89
2021/10/20 00:11:04;;;;;;;20.17;9.63;;;1.70;70.50;;;;;;4958367;28;20034;-88
2021/10/20 00:13:30;;;;;;;19.45;9.63;;;1.80;70.60;;;;;;4982429;28;20142;-87
2021/10/20 00:15:56;;;;;;;23.77;10.32;;;1.70;70.50;;;;;;4977711;28;20113;-87
2021/10/20 00:18:22;;;;;;;22.65;8.65;;;1.80;71.00;;;;;;4994659;28;20026;-88
2021/10/20 00:20:48;;;;;;;17.55;8.45;;;1.80;70.20;;;;;;4995057;28;20034;-88
2021/10/20 00:23:14;;;;;;;16.65;8.38;;;1.70;70.10;;;;;;4977430;28;20117;-89
2021/10/20 00:25:40;;;;;;;17.48;8.38;;;1.70;70.00;;;;;;4995219;28;20068;-89
2021/10/20 00:28:07;;;;;;;16.45;7.90;;;1.70;70.20;;;;;;4976770;28;20029;-88
2021/10/20 00:30:33;;;;;;;18.52;8.05;;;1.70;70.50;;;;;;4976762;28;20037;-89
2021/10/20 00:33:00;;;;;;;14.07;7.32;;;1.70;70.70;;;;;;4977239;28;20034;-88
2021/10/20 00:35:26;;;;;;;18.33;9.45;;;1.70;70.60;;;;;;4995084;28;20456;-88
2021/10/20 00:37:52;;;;;;;20.02;8.90;;;1.70;71.40;;;;;;4994568;28;20037;-89
2021/10/20 00:40:19;;;;;;;17.42;8.45;;;1.60;71.50;;;;;;4976991;28;20031;-90
2021/10/20 00:42:46;;;;;;;18.55;9.07;;;1.60;71.30;;;;;;4976704;28;20037;-89
2021/10/20 00:45:13;;;;;;;20.05;9.95;;;1.60;71.00;;;;;;4977068;28;20038;-89
2021/10/20 00:47:41;;;;;;;17.02;8.23;;;1.50;72.70;;;;;;4994550;28;20050;-88
2021/10/20 00:50:10;;;;;;;18.13;8.18;;;1.50;71.90;;;;;;4977109;28;20030;-88
2021/10/20 00:52:38;;;;;;;19.42;8.95;;;1.40;72.10;;;;;;4976912;28;20528;-86
2021/10/20 00:55:06;;;;;;;16.63;8.50;;;1.30;71.30;;;;;;4994397;28;20031;-88
2021/10/20 00:57:32;;;;;;;17.75;8.63;;;1.20;71.30;;;;;;4977068;28;20050;-88
2021/10/20 01:00:01;;;;;;;20.30;9.15;;;1.10;71.80;;;;;;4976812;28;20030;-87
2021/10/20 01:02:27;;;;;;;19.90;9.15;;;1.00;72.30;;;;;;4994140;28;20038;-88
2021/10/20 01:04:53;;;;;;;17.98;8.73;;;1.00;72.60;;;;;;4976281;28;20030;-90
2021/10/20 01:07:22;;;;;;;22.83;9.70;;;1.00;72.50;;;;;;4993245;28;20037;-88
2021/10/20 01:09:48;;;;;;;25.08;10.38;;;0.90;73.20;;;;;;4977132;28;20548;-89
2021/10/20 01:12:16;;;;;;;21.38;10.77;;;0.90;73.00;;;;;;4976062;28;20043;-88
2021/10/20 01:14:43;;;;;;;24.80;10.90;;;0.90;73.60;;;;;;4993632;28;20081;-89
2021/10/20 01:17:09;;;;;;;22.95;10.68;;;0.90;73.10;;;;;;4994020;28;20034;-89
2021/10/20 01:19:37;;;;;;;26.13;11.25;;;0.80;73.50;;;;;;4994408;28;20507;-87
2021/10/20 01:22:03;;;;;;;24.15;10.88;;;0.80;73.90;;;;;;4994405;28;20494;-87
2021/10/20 01:24:29;;;;;;;26.20;12.13;;;0.80;74.70;;;;;;4976348;28;20033;-87
2021/10/20 01:26:56;;;;;;;22.88;9.98;;;0.70;74.20;;;;;;4976792;28;20026;-88
2021/10/20 01:29:23;;;;;;;24.80;11.13;;;0.70;74.50;;;;;;4994295;28;20541;-88
2021/10/20 01:31:54;;;;;;;29.17;12.02;;;0.60;74.20;;;;;;4993971;28;20026;-88
2021/10/20 01:34:21;;;;;;;24.30;11.23;;;0.60;74.80;;;;;;4977082;28;20026;-86
2021/10/20 01:36:49;;;;;;;25.83;10.80;;;0.60;75.00;;;;;;4976583;28;20045;-86
2021/10/20 01:39:15;;;;;;;24.75;10.50;;;0.60;75.30;;;;;;4976674;28;20069;-86
2021/10/20 01:41:41;;;;;;;21.25;10.35;;;0.60;75.30;;;;;;4975925;28;20022;-87
2021/10/20 01:44:07;;;;;;;24.50;11.00;;;0.70;75.10;;;;;;4996098;28;20488;-86
2021/10/20 01:46:33;;;;;;;25.23;10.77;;;0.70;75.00;;;;;;4980140;28;20120;-86
2021/10/20 01:48:59;;;;;;;21.73;11.27;;;0.70;75.30;;;;;;4998049;28;20501;-87
2021/10/20 01:51:25;;;;;;;23.13;10.93;;;0.70;75.30;;;;;;4980461;28;20117;-86
2021/10/20 01:53:51;;;;;;;24.00;11.95;;;0.70;75.70;;;;;;4997811;28;20433;-87
2021/10/20 01:56:17;;;;;;;23.33;11.43;;;0.70;76.20;;;;;;4979485;28;20022;-88
2021/10/20 01:58:44;;;;;;;23.83;10.60;;;0.60;75.40;;;;;;4963717;28;20496;-88
2021/10/20 02:01:10;;;;;;;22.13;10.55;;;0.60;75.30;;;;;;4997388;28;20129;-86
2021/10/20 02:03:41;;;;;;;24.58;11.38;;;0.50;75.30;;;;;;4978989;28;20465;-87
2021/10/20 02:06:09;;;;;;;23.55;11.25;;;0.50;75.20;;;;;;4997368;28;20023;-86
2021/10/20 02:08:35;;;;;;;24.75;11.38;;;0.50;76.00;;;;;;4996980;28;20057;-86
2021/10/20 02:11:01;;;;;;;21.23;10.45;;;0.50;75.80;;;;;;4979804;28;20465;-86
2021/10/20 02:13:27;;;;;;;23.85;10.60;;;0.50;75.70;;;;;;4976047;28;20501;-86
2021/10/20 02:15:54;;;;;;;24.50;10.75;;;0.60;76.00;;;;;;4978312;28;20034;-87
2021/10/20 02:18:21;;;;;;;26.63;12.13;;;0.60;75.90;;;;;;4960419;28;20106;-87
2021/10/20 02:20:47;;;;;;;25.33;11.40;;;0.60;75.80;;;;;;4977583;28;20035;-89
2021/10/20 02:23:13;;;;;;;29.50;13.32;;;0.70;75.70;;;;;;4977710;28;20062;-90
2021/10/20 02:25:39;;;;;;;29.13;12.30;;;0.60;76.90;;;;;;4960307;28;20165;-90
2021/10/20 02:28:05;;;;;;;29.40;13.70;;;0.60;76.10;;;;;;4960212;28;20473;-90
2021/10/20 02:30:31;;;;;;;29.75;13.60;;;0.60;76.40;;;;;;4977260;28;20053;-90
2021/10/20 02:32:56;;;;;;;26.48;12.88;;;0.50;76.70;;;;;;4960221;28;20038;-89
2021/10/20 02:35:22;;;;;;;27.02;12.63;;;0.50;76.90;;;;;;4960624;28;20382;-88
2021/10/20 02:37:48;;;;;;;33.55;14.00;;;0.50;77.70;;;;;;4960328;28;20031;-89
2021/10/20 02:40:15;;;;;;;30.75;14.15;;;0.50;78.10;;;;;;4959921;28;20042;-89
2021/10/20 02:42:42;;;;;;;29.70;13.18;;;0.50;77.30;;;;;;4976079;28;20031;-89
2021/10/20 02:45:11;;;;;;;32.63;14.85;;;0.50;77.10;;;;;;4976790;28;20031;-88
2021/10/20 02:47:36;;;;;;;28.48;12.93;;;0.50;79.00;;;;;;4977792;28;20034;-89
2021/10/20 02:50:03;;;;;;;28.85;12.88;;;0.50;77.80;;;;;;4959492;28;20441;-89
2021/10/20 02:52:29;;;;;;;27.20;12.27;;;0.50;77.60;;;;;;4960225;28;20034;-88
2021/10/20 02:54:55;;;;;;;29.55;14.07;;;0.50;77.60;;;;;;4977267;28;20027;-89
2021/10/20 02:57:21;;;;;;;30.77;13.68;;;0.40;77.60;;;;;;4960245;28;20031;-90
2021/10/20 02:59:47;;;;;;;34.60;14.40;;;0.40;77.70;;;;;;4977814;28;20026;-90
2021/10/20 03:02:13;;;;;;;25.05;11.85;;;0.40;77.90;;;;;;4977684;28;20031;-90
2021/10/20 03:04:39;;;;;;;30.60;13.45;;;0.30;77.80;;;;;;4934488;28;20034;-90
2021/10/20 03:07:05;;;;;;;30.15;13.50;;;0.30;78.10;;;;;;4981632;28;20031;-89
2021/10/20 03:09:31;;;;;;;31.33;13.80;;;0.30;78.60;;;;;;4981310;28;20546;-89
2021/10/20 03:11:56;;;;;;;22.75;11.23;;;0.30;78.80;;;;;;4976664;28;20102;-89
2021/10/20 03:14:22;;;;;;;24.98;11.18;;;0.40;79.00;;;;;;4976219;28;20064;-88
2021/10/20 03:16:48;;;;;;;21.75;11.07;;;0.40;78.60;;;;;;4959687;28;20034;-88
2021/10/20 03:19:13;;;;;;;23.52;11.85;;;0.40;78.20;;;;;;4976605;28;20031;-87
2021/10/20 03:21:39;;;;;;;22.10;11.10;;;0.50;78.60;;;;;;4960354;28;20025;-89
2021/10/20 03:24:05;;;;;;;22.55;11.15;;;0.40;78.60;;;;;;4959012;28;20465;-87
2021/10/20 03:26:30;;;;;;;23.95;11.52;;;0.50;78.70;;;;;;4958949;28;20065;-87
2021/10/20 03:28:57;;;;;;;19.58;10.07;;;0.50;78.60;;;;;;4958339;28;20034;-88
2021/10/20 03:31:23;;;;;;;21.17;9.82;;;0.50;78.40;;;;;;4976215;28;20035;-88
2021/10/20 03:33:49;;;;;;;23.63;10.70;;;0.40;78.00;;;;;;4962912;28;20536;-87
2021/10/20 03:36:14;;;;;;;23.17;10.63;;;0.40;78.00;;;;;;4958768;28;20027;-88
2021/10/20 03:38:40;;;;;;;21.50;10.27;;;0.40;77.90;;;;;;4958570;28;20061;-88
2021/10/20 03:41:06;;;;;;;27.33;12.70;;;0.40;78.30;;;;;;4976244;28;20082;-88
2021/10/20 03:43:32;;;;;;;26.75;12.93;;;0.40;78.50;;;;;;4977715;28;20327;-88
2021/10/20 03:45:57;;;;;;;26.92;12.23;;;0.40;79.00;;;;;;4975443;28;20023;-88
2021/10/20 03:48:23;;;;;;;30.88;13.93;;;0.40;78.90;;;;;;4963586;28;20034;-86
2021/10/20 03:50:49;;;;;;;26.42;12.40;;;0.40;79.10;;;;;;4958490;28;20435;-88
2021/10/20 03:53:14;;;;;;;27.83;13.18;;;0.40;78.60;;;;;;4976011;28;20165;-85
2021/10/20 03:55:42;;;;;;;31.98;13.70;;;0.40;78.70;;;;;;4976441;28;20524;-87
2021/10/20 03:58:08;;;;;;;29.42;13.63;;;0.30;79.00;;;;;;4963129;28;20038;-88
2021/10/20 04:00:34;;;;;;;22.67;11.45;;;0.30;79.10;;;;;;4958570;28;20049;-87
2021/10/20 04:03:00;;;;;;;26.30;12.38;;;0.30;78.70;;;;;;4977274;28;20039;-89
2021/10/20 04:05:26;;;;;;;26.88;11.93;;;0.30;79.40;;;;;;4975097;28;20031;-88
2021/10/20 04:07:52;;;;;;;24.73;11.02;;;0.40;79.00;;;;;;4958562;28;20113;-88
2021/10/20 04:10:28;;;;;;;23.73;12.07;;;0.40;79.20;;;;;;4959560;28;20058;-87
2021/10/20 04:12:57;;;;;;;24.38;12.15;;;0.40;79.30;;;;;;4965227;28;20055;-87
2021/10/20 04:15:24;;;;;;;22.65;10.75;;;0.40;79.20;;;;;;5005931;28;20093;-85
2021/10/20 04:17:51;;;;;;;23.15;10.68;;;0.40;79.20;;;;;;5006304;28;20070;-88
2021/10/20 04:20:20;;;;;;;21.63;11.02;;;0.40;78.70;;;;;;4994793;28;20026;-86
2021/10/20 04:22:50;;;;;;;24.35;11.32;;;0.50;79.10;;;;;;4977128;28;20112;-87
2021/10/20 04:25:18;;;;;;;23.75;11.85;;;0.50;79.10;;;;;;4977210;28;20468;-85
2021/10/20 04:27:45;;;;;;;20.58;10.57;;;0.50;79.30;;;;;;4977076;28;20088;-87
2021/10/20 04:30:12;;;;;;;22.83;10.27;;;0.50;78.70;;;;;;4994410;28;20033;-85
2021/10/20 04:32:38;;;;;;;22.85;11.48;;;0.50;78.20;;;;;;4994034;28;20477;-86
2021/10/20 04:35:05;;;;;;;22.50;10.55;;;0.50;78.60;;;;;;4976841;28;20031;-86
2021/10/20 04:37:33;;;;;;;21.33;10.30;;;0.50;78.50;;;;;;4993874;28;20039;-85
2021/10/20 04:40:22;;;;;;;20.45;10.85;;;0.50;79.00;;;;;;4993310;28;20492;-86
2021/10/20 04:42:48;;;;;;;23.42;11.20;;;0.50;79.30;;;;;;4994430;28;20030;-86
2021/10/20 04:45:14;;;;;;;22.40;11.20;;;0.60;79.10;;;;;;4977991;28;20033;-86
2021/10/20 04:47:42;;;;;;;24.02;11.35;;;0.60;79.40;;;;;;4977878;28;20018;-86
2021/10/20 04:50:13;;;;;;;26.17;11.63;;;0.60;79.10;;;;;;4994560;28;20029;-87
2021/10/20 04:52:38;;;;;;;21.48;10.55;;;0.70;79.10;;;;;;4997389;28;20038;-84
2021/10/20 04:55:06;;;;;;;23.73;9.82;;;0.70;79.00;;;;;;5011896;28;20124;-89
2021/10/20 04:57:33;;;;;;;22.67;11.32;;;0.80;78.70;;;;;;4995061;28;20358;-86
2021/10/20 05:00:06;;;;;;;19.27;10.60;;;0.90;78.80;;;;;;4995845;28;20033;-86
2021/10/20 05:02:35;;;;;;;24.90;11.75;;;0.90;78.60;;;;;;4988494;28;20068;-87
2021/10/20 05:05:05;;;;;;;19.45;10.25;;;0.90;78.30;;;;;;5020246;28;20026;-90
2021/10/20 05:07:31;;;;;;;18.45;10.10;;;0.90;78.00;;;;;;5013500;28;20022;-89
2021/10/20 05:09:57;;;;;;;19.73;9.15;;;1.00;78.00;;;;;;5013380;28;20030;-88
2021/10/20 05:12:23;;;;;;;18.85;9.13;;;1.00;77.70;;;;;;4995562;28;20481;-87
2021/10/20 05:14:49;;;;;;;29.35;15.00;;;1.10;77.90;;;;;;4995602;28;20046;-89
2021/10/20 05:17:14;;;;;;;56.50;28.73;;;1.20;78.20;;;;;;4996847;28;20492;-88
2021/10/20 05:19:41;;;;;;;39.13;20.80;;;1.40;78.30;;;;;;5016452;28;20388;-93
2021/10/20 05:22:07;;;;;;;35.10;18.27;;;1.60;77.90;;;;;;5000046;28;20026;-94
2021/10/20 05:24:34;;;;;;;35.75;16.40;;;1.80;77.40;;;;;;5031616;28;20033;-91
2021/10/20 05:27:00;;;;;;;27.73;14.60;;;1.90;77.20;;;;;;5003910;28;20026;-93
2021/10/20 05:29:32;;;;;;;27.58;13.27;;;2.10;76.90;;;;;;5018000;28;20379;-94
2021/10/20 05:31:59;;;;;;;23.10;12.70;;;2.20;76.70;;;;;;5004102;28;20029;-93
2021/10/20 05:34:25;;;;;;;22.88;11.77;;;2.20;76.70;;;;;;5020277;28;20532;-89
2021/10/20 05:36:50;;;;;;;24.30;11.93;;;2.30;76.40;;;;;;5005148;28;20049;-90
2021/10/20 05:39:18;;;;;;;25.80;11.25;;;2.30;76.30;;;;;;5029313;28;20714;-91
2021/10/20 05:41:45;;;;;;;23.00;12.20;;;2.40;76.00;;;;;;5002818;28;20029;-86
2021/10/20 05:44:13;;;;;;;20.67;11.30;;;2.50;76.10;;;;;;5015467;28;20034;-85
2021/10/20 05:46:39;;;;;;;23.98;11.48;;;2.50;75.90;;;;;;4999520;28;20100;-86
2021/10/20 05:49:05;;;;;;;21.13;11.32;;;2.70;75.70;;;;;;4999588;28;20074;-87
2021/10/20 05:51:31;;;;;;;20.42;10.80;;;2.80;76.10;;;;;;4999561;28;20464;-87
2021/10/20 05:53:56;;;;;;;28.52;14.02;;;2.90;75.80;;;;;;5014476;28;20120;-88
2021/10/20 05:56:22;;;;;;;24.38;12.20;;;3.10;75.80;;;;;;5014885;28;20338;-85
2021/10/20 05:58:48;;;;;;;22.08;12.05;;;3.30;75.60;;;;;;5014289;28;20144;-88
2021/10/20 06:01:14;;;;;;;22.10;12.00;;;3.50;75.20;;;;;;5015859;28;20100;-86
2021/10/20 06:03:43;;;;;;;24.17;11.82;;;3.70;75.30;;;;;;4997690;28;20034;-87
2021/10/20 06:06:08;;;;;;;24.17;12.88;;;3.90;74.40;;;;;;5013841;28;20073;-87
2021/10/20 06:08:34;;;;;;;27.15;13.68;;;4.00;74.30;;;;;;5013830;28;20468;-85
2021/10/20 06:11:00;;;;;;;22.70;12.45;;;4.20;73.40;;;;;;5015390;28;20033;-86
2021/10/20 06:13:26;;;;;;;25.20;12.85;;;4.20;73.10;;;;;;5015032;28;20518;-87
2021/10/20 06:15:51;;;;;;;30.33;14.98;;;4.30;72.90;;;;;;5014858;28;20468;-87
2021/10/20 06:18:17;;;;;;;29.60;14.15;;;4.40;72.70;;;;;;4998031;28;20030;-87
2021/10/20 06:20:43;;;;;;;27.23;12.73;;;4.50;72.30;;;;;;4998680;28;20068;-86
2021/10/20 06:23:12;;;;;;;27.33;13.68;;;4.60;71.90;;;;;;4998021;28;20030;-86
2021/10/20 06:25:37;;;;;;;22.33;11.77;;;4.60;71.60;;;;;;4998024;28;20133;-86
2021/10/20 06:28:03;;;;;;;21.17;11.73;;;4.60;71.40;;;;;;5016745;28;20118;-86
2021/10/20 06:30:29;;;;;;;25.83;13.85;;;4.70;71.10;;;;;;4998053;28;20026;-86
2021/10/20 06:32:55;;;;;;;26.73;14.98;;;4.80;70.70;;;;;;5017147;28;20026;-88
2021/10/20 06:35:21;;;;;;;29.33;14.60;;;4.90;70.00;;;;;;4999224;28;20133;-86
2021/10/20 06:37:50;;;;;;;26.55;13.48;;;4.90;69.40;;;;;;4998785;28;20030;-86
2021/10/20 06:40:16;;;;;;;26.50;13.35;;;5.00;69.40;;;;;;5016386;28;20087;-86
2021/10/20 06:42:42;;;;;;;27.35;14.48;;;5.10;69.70;;;;;;4998304;28;20460;-86
2021/10/20 06:45:08;;;;;;;23.23;12.70;;;5.30;69.50;;;;;;5016057;28;20022;-87
2021/10/20 06:47:34;;;;;;;25.17;13.15;;;5.50;69.70;;;;;;4998623;28;20061;-86
2021/10/20 06:49:59;;;;;;;21.67;11.32;;;5.80;70.90;;;;;;4998802;28;20049;-87
2021/10/20 06:52:25;;;;;;;21.88;11.20;;;6.20;71.50;;;;;;5015962;28;20191;-87
2021/10/20 06:54:51;;;;;;;22.58;10.82;;;6.70;72.20;;;;;;4998057;28;20029;-87
2021/10/20 06:57:17;;;;;;;27.05;12.88;;;7.30;71.80;;;;;;4998263;28;20029;-87
2021/10/20 06:59:43;;;;;;;30.15;15.15;;;7.60;69.90;;;;;;4998511;28;20034;-86
2021/10/20 07:02:09;;;;;;;38.70;16.75;;;7.90;69.40;;;;;;5015747;28;20417;-87
2021/10/20 07:04:35;;;;;;;29.60;15.98;;;8.30;69.30;;;;;;5015771;28;20060;-87
2021/10/20 07:07:01;;;;;;;38.83;13.70;;;8.60;68.50;;;;;;5015750;28;20465;-87
2021/10/20 07:09:26;;;;;;;28.00;11.38;;;8.90;67.80;;;;;;4997899;28;20037;-86
2021/10/20 07:11:52;;;;;;;35.42;11.55;;;9.30;67.80;;;;;;4997867;28;20026;-86
2021/10/20 07:14:18;;;;;;;21.77;10.40;;;9.60;66.50;;;;;;5015676;28;20061;-86
2021/10/20 07:16:44;;;;;;;25.98;9.98;;;10.10;66.20;;;;;;4998312;28;20053;-87
2021/10/20 07:19:09;;;;;;;17.05;8.48;;;10.40;64.60;;;;;;5015471;28;20022;-88
2021/10/20 07:21:36;;;;;;;21.48;9.82;;;10.70;64.20;;;;;;4998269;28;20472;-88
2021/10/20 07:24:02;;;;;;;15.85;8.70;;;11.10;63.00;;;;;;4998232;28;20498;-87
2021/10/20 07:26:29;;;;;;;16.27;8.95;;;11.40;63.10;;;;;;4997831;28;20032;-88
2021/10/20 07:28:54;;;;;;;17.92;9.05;;;11.70;61.40;;;;;;5014433;28;20029;-85
2021/10/20 07:31:20;;;;;;;19.10;9.45;;;12.00;59.90;;;;;;4997830;28;20029;-87
2021/10/20 07:33:46;;;;;;;17.38;9.30;;;12.30;58.90;;;;;;5015043;28;20034;-85
2021/10/20 07:36:12;;;;;;;18.17;9.57;;;12.40;58.10;;;;;;4997885;28;20030;-86
2021/10/20 07:38:38;;;;;;;14.40;8.13;;;12.50;57.30;;;;;;4997314;28;20030;-85
2021/10/20 07:41:04;;;;;;;13.00;7.32;;;12.70;56.80;;;;;;4997122;28;20030;-87
2021/10/20 07:43:29;;;;;;;14.98;7.80;;;13.00;56.50;;;;;;4997451;28;20034;-86
2021/10/20 07:45:56;;;;;;;12.55;7.50;;;13.20;55.70;;;;;;4997004;28;20361;-88
2021/10/20 07:48:22;;;;;;;13.07;7.07;;;13.60;54.50;;;;;;5014852;28;20101;-86
2021/10/20 07:50:47;;;;;;;13.55;6.80;;;13.80;53.30;;;;;;5015453;28;20441;-86
2021/10/20 07:53:13;;;;;;;10.88;6.57;;;13.80;53.10;;;;;;5015015;28;20049;-86
2021/10/20 07:55:39;;;;;;;12.20;7.90;;;14.00;52.10;;;;;;4997436;28;20028;-87
2021/10/20 07:58:05;;;;;;;11.48;7.00;;;14.10;51.30;;;;;;5014922;28;20026;-86
2021/10/20 08:00:31;;;;;;;11.77;7.10;;;14.30;51.60;;;;;;5014861;28;20018;-86
2021/10/20 08:02:56;;;;;;;11.20;7.00;;;14.50;51.00;;;;;;4997816;28;20029;-86
2021/10/20 08:05:22;;;;;;;14.70;8.00;;;14.60;50.50;;;;;;4997279;28;20472;-86
2021/10/20 08:07:48;;;;;;;13.20;6.85;;;14.90;49.70;;;;;;4996825;28;20057;-86
2021/10/20 08:10:16;;;;;;;14.70;8.98;;;15.00;49.60;;;;;;5014523;28;20054;-88
2021/10/20 08:12:48;;;;;;;15.38;8.98;;;15.20;49.10;;;;;;4996878;28;20468;-86
2021/10/20 08:15:15;;;;;;;11.88;7.35;;;15.50;47.60;;;;;;5014920;28;20049;-85
2021/10/20 08:17:41;;;;;;;10.05;6.10;;;15.60;47.20;;;;;;4997484;28;20036;-85
2021/10/20 08:20:09;;;;;;;10.50;5.30;;;15.90;46.90;;;;;;4997734;28;20030;-85
2021/10/20 08:22:36;;;;;;;9.77;5.13;;;16.10;46.30;;;;;;4998654;28;20041;-85
2021/10/20 08:25:03;;;;;;;8.48;5.13;;;16.30;45.10;;;;;;5000042;28;20026;-86
2021/10/20 08:27:29;;;;;;;7.10;4.32;;;16.60;43.50;;;;;;5017959;28;20026;-85
2021/10/20 08:29:55;;;;;;;6.25;4.30;;;16.60;42.90;;;;;;4997854;28;20037;-86
2021/10/20 08:32:21;;;;;;;7.05;3.90;;;16.70;42.90;;;;;;4996519;28;20034;-88
2021/10/20 08:34:47;;;;;;;6.72;3.80;;;16.90;42.00;;;;;;5015987;28;20082;-85
2021/10/20 08:37:13;;;;;;;8.00;3.40;;;17.00;41.40;;;;;;4996228;28;20030;-85
2021/10/20 08:39:39;;;;;;;8.27;4.53;;;17.30;41.60;;;;;;5013964;28;20076;-84
2021/10/20 08:42:05;;;;;;;6.68;3.90;;;17.40;42.00;;;;;;5013815;28;20396;-84
2021/10/20 08:44:34;;;;;;;8.05;4.55;;;17.50;40.80;;;;;;5013694;28;20026;-86
2021/10/20 08:46:59;;;;;;;6.47;3.85;;;17.40;40.00;;;;;;4996020;28;20057;-85
2021/10/20 08:49:25;;;;;;;5.82;3.30;;;17.00;39.60;;;;;;4996030;28;20057;-87
2021/10/20 08:51:52;;;;;;;4.85;2.90;;;16.80;40.30;;;;;;4996316;28;20061;-85
2021/10/20 08:54:18;;;;;;;6.47;3.67;;;17.10;40.40;;;;;;5013507;28;20061;-85
2021/10/20 08:56:45;;;;;;;4.90;3.10;;;17.50;39.60;;;;;;4996028;28;20030;-85
2021/10/20 08:59:11;;;;;;;5.22;3.08;;;17.80;39.40;;;;;;5013883;28;20103;-84
2021/10/20 09:01:38;;;;;;;5.65;3.20;;;18.10;38.90;;;;;;4997219;28;20026;-84
2021/10/20 09:04:06;;;;;;;7.68;3.50;;;18.20;38.90;;;;;;4996322;28;20444;-84
2021/10/20 09:06:32;;;;;;;8.85;3.60;;;18.50;38.30;;;;;;4996963;28;20116;-84
2021/10/20 09:09:02;;;;;;;7.60;3.72;;;18.70;37.90;;;;;;5013703;28;20050;-84
2021/10/20 09:13:58;;;;;;;6.88;4.05;;;18.90;37.20;;;;;;5013700;28;20065;-85
2021/10/20 09:16:24;;;;;;;7.78;3.90;;;19.00;36.40;;;;;;5013542;28;20101;-84
2021/10/20 09:18:52;;;;;;;7.30;3.97;;;18.80;36.50;;;;;;5013349;28;20491;-84
2021/10/20 09:21:18;;;;;;;7.10;4.60;;;18.80;37.30;;;;;;5014079;28;20033;-84
2021/10/20 09:23:43;;;;;;;6.80;4.35;;;18.90;37.90;;;;;;4996081;28;20034;-84
2021/10/20 09:26:09;;;;;;;6.00;4.07;;;19.20;37.50;;;;;;4996416;28;20028;-84
2021/10/20 09:28:38;;;;;;;7.35;4.47;;;19.50;37.50;;;;;;4996383;28;20026;-84
2021/10/20 09:31:08;;;;;;;6.20;3.90;;;19.70;37.10;;;;;;4996442;28;20080;-85
2021/10/20 09:33:42;;;;;;;7.28;4.47;;;20.00;36.80;;;;;;4996228;28;20030;-84
2021/10/20 09:36:21;;;;;;;7.20;4.57;;;20.00;36.00;;;;;;4995924;28;20041;-85
2021/10/20 09:38:49;;;;;;;5.97;4.15;;;19.90;35.70;;;;;;5013609;28;20364;-85
2021/10/20 09:41:18;;;;;;;6.68;4.32;;;19.90;36.30;;;;;;4995881;28;20117;-85
2021/10/20 09:43:53;;;;;;;6.65;4.28;;;20.00;36.60;;;;;;5013461;28;20034;-84
2021/10/20 09:46:36;;;;;;;8.77;4.90;;;20.20;36.10;;;;;;5013745;28;20026;-84
2021/10/20 09:49:13;;;;;;;9.48;4.40;;;20.30;35.50;;;;;;4996002;28;20084;-84
2021/10/20 09:51:38;;;;;;;6.18;3.95;;;20.30;35.30;;;;;;4995877;28;20048;-83
2021/10/20 09:54:48;;;;;;;8.57;4.90;;;20.30;35.00;;;;;;4995518;28;20472;-84
2021/10/20 09:57:14;;;;;;;6.57;4.28;;;20.40;35.00;;;;;;4983049;28;20070;-84
2021/10/20 09:59:41;;;;;;;7.82;4.55;;;20.40;35.20;;;;;;5013330;28;20037;-85
2021/10/20 10:02:09;;;;;;;7.25;4.32;;;20.40;34.70;;;;;;5013191;28;20026;-85
2021/10/20 10:04:37;;;;;;;7.85;4.45;;;20.40;35.30;;;;;;4997225;28;20475;-85
2021/10/20 10:07:03;;;;;;;7.05;4.18;;;20.50;34.60;;;;;;4999091;28;20121;-85
2021/10/20 10:09:33;;;;;;;8.40;4.10;;;20.70;35.00;;;;;;5000537;28;20432;-84
2021/10/20 10:12:01;;;;;;;;;;;20.90;34.40;;;;;;5018625;28;20064;-85
2021/10/20 10:14:43;;;;;;;7.95;4.78;;;20.80;33.60;;;;;;4998604;28;19918;-88
2021/10/20 10:17:12;;;;;;;8.57;4.65;;;20.70;33.40;;;;;;5016875;28;20034;-87
2021/10/20 10:19:40;;;;;;;6.78;4.25;;;20.70;33.90;;;;;;5016992;28;20069;-87
2021/10/20 10:22:50;;;;;;;8.10;4.72;;;20.60;33.90;;;;;;4998859;28;20026;-86
2021/10/20 10:25:16;;;;;;;9.27;5.15;;;20.10;34.40;;;;;;4962111;28;20129;-86
2021/10/20 10:28:23;;;;;;;10.13;4.90;;;19.60;35.20;;;;;;4998817;28;20034;-86
2021/10/20 10:30:56;;;;;;;7.82;5.10;;;19.20;35.90;;;;;;4998120;28;20476;-86
2021/10/20 10:33:26;;;;;;;7.15;4.50;;;18.90;36.30;;;;;;4998154;28;20084;-85
2021/10/20 10:36:24;;;;;;;7.97;5.15;;;18.80;37.40;;;;;;4998705;28;20038;-86
2021/10/20 10:38:54;;;;;;;10.85;5.57;;;18.50;37.10;;;;;;4983999;28;20041;-86
2021/10/20 10:41:26;;;;;;;10.20;6.03;;;18.30;37.50;;;;;;5016507;28;20535;-86
2021/10/20 10:44:17;;;;;;;10.13;5.18;;;18.10;38.00;;;;;;5016545;28;20456;-86
2021/10/20 10:46:47;;;;;;;10.85;5.63;;;17.80;38.30;;;;;;4998151;28;20041;-87
2021/10/20 10:49:23;;;;;;;12.73;6.40;;;17.70;38.60;;;;;;4998541;28;20026;-86
2021/10/20 10:52:21;;;;;;;8.52;5.47;;;17.40;39.10;;;;;;4998729;28;20033;-87
2021/10/20 10:54:56;;;;;;;10.52;6.18;;;17.20;39.60;;;;;;4999025;28;20476;-86
2021/10/20 10:57:22;;;;;;;8.85;5.93;;;17.00;39.90;;;;;;5016182;28;20030;-87
2021/10/20 11:00:09;;;;;;;9.85;5.65;;;16.80;40.10;;;;;;5000976;28;20037;-85
2021/10/20 11:02:58;;;;;;;11.38;6.03;;;16.80;40.40;;;;;;5018448;28;20406;-86
2021/10/20 11:05:27;;;;;;;9.57;5.72;;;16.80;40.60;;;;;;5015996;28;20160;-87
2021/10/20 11:07:59;;;;;;;15.15;8.00;;;16.70;40.60;;;;;;4998566;28;20037;-86
2021/10/20 11:10:26;;;;;;;12.98;7.03;;;16.70;40.80;;;;;;5015633;28;20507;-85
2021/10/20 11:12:55;;;;;;;11.00;6.07;;;16.70;41.10;;;;;;4998018;28;20037;-86
2021/10/20 11:15:22;;;;;;;10.00;6.03;;;16.90;41.40;;;;;;4997313;28;20096;-86
2021/10/20 11:17:48;;;;;;;9.25;6.00;;;17.20;41.00;;;;;;4997874;28;20108;-86
2021/10/20 11:20:22;;;;;;;11.07;6.30;;;17.40;40.80;;;;;;4997840;28;20030;-87
2021/10/20 11:22:54;;;;;;;11.70;6.05;;;17.50;40.80;;;;;;4997788;28;20030;-85
2021/10/20 11:25:22;;;;;;;10.15;6.40;;;17.50;41.00;;;;;;4997842;28;20026;-85
2021/10/20 11:27:53;;;;;;;9.63;5.68;;;17.60;41.30;;;;;;5014981;28;20030;-85
2021/10/20 11:30:21;;;;;;;10.73;6.32;;;17.70;41.50;;;;;;5015694;28;20025;-85
2021/10/20 11:32:49;;;;;;;10.15;5.22;;;17.80;41.60;;;;;;4997859;28;20077;-84
2021/10/20 11:35:20;;;;;;;10.95;6.50;;;18.10;41.40;;;;;;4997636;28;20034;-85
2021/10/20 11:38:11;;;;;;;10.55;6.60;;;18.30;41.20;;;;;;4997734;28;20022;-85
2021/10/20 11:40:41;;;;;;;10.75;6.18;;;18.50;41.00;;;;;;5015249;28;20073;-85
2021/10/20 11:43:26;;;;;;;8.65;5.72;;;18.50;41.30;;;;;;5015335;28;20042;-85
2021/10/20 11:45:51;;;;;;;10.05;6.30;;;18.80;41.40;;;;;;5015208;28;20029;-85
2021/10/20 11:48:25;;;;;;;10.38;6.53;;;19.20;41.20;;;;;;4997556;28;20030;-85
2021/10/20 11:50:56;;;;;;;9.32;5.90;;;19.50;41.20;;;;;;4998027;28;20061;-84
2021/10/20 11:53:25;;;;;;;10.25;6.32;;;20.00;40.40;;;;;;5015811;28;20029;-85
2021/10/20 11:55:58;;;;;;;12.35;6.82;;;20.50;39.60;;;;;;4997828;28;20457;-85
2021/10/20 11:58:26;;;;;;;10.00;6.80;;;20.50;39.60;;;;;;5015589;28;20464;-84
2021/10/20 12:00:54;;;;;;;13.70;7.72;;;20.60;39.60;;;;;;4998366;28;20114;-85
2021/10/20 12:03:19;;;;;;;14.98;7.78;;;20.80;39.40;;;;;;4999230;28;20429;-84
2021/10/20 12:05:47;;;;;;;14.30;8.38;;;21.00;39.30;;;;;;5022467;28;20076;-84
2021/10/20 12:08:31;;;;;;;14.00;8.30;;;21.10;39.40;;;;;;5007748;28;20026;-83
2021/10/20 12:10:57;;;;;;;12.30;7.63;;;21.60;38.60;;;;;;5017988;28;20461;-84
2021/10/20 12:13:24;;;;;;;13.10;7.32;;;21.70;38.50;;;;;;4997025;28;20092;-83
2021/10/20 12:15:51;;;;;;;10.95;6.95;;;21.70;38.70;;;;;;5014912;28;20022;-83
2021/10/20 12:18:17;;;;;;;9.52;6.47;;;21.80;39.00;;;;;;4998150;28;20208;-81
2021/10/20 12:20:54;;;;;;;13.02;7.40;;;21.90;39.20;;;;;;4997192;28;20037;-84
2021/10/20 12:23:20;;;;;;;12.60;6.90;;;22.10;38.60;;;;;;4996770;28;20026;-84
2021/10/20 12:25:47;;;;;;;12.13;7.05;;;22.10;38.90;;;;;;4996689;28;20079;-84
2021/10/20 12:28:14;;;;;;;14.25;7.15;;;22.20;39.00;;;;;;5013576;28;20034;-83
2021/10/20 12:30:40;;;;;;;11.23;6.47;;;22.10;39.10;;;;;;4996757;28;20026;-83
2021/10/20 12:33:12;;;;;;;11.68;6.70;;;22.00;39.40;;;;;;4997124;28;20085;-83
2021/10/20 12:35:43;;;;;;;12.55;7.93;;;22.00;39.70;;;;;;4997220;28;20049;-83
2021/10/20 12:38:11;;;;;;;10.85;6.75;;;21.80;40.30;;;;;;5014604;28;20022;-84
2021/10/20 12:40:37;;;;;;;13.55;6.60;;;22.10;40.30;;;;;;4996743;28;20018;-84
2021/10/20 12:43:08;;;;;;;11.20;7.63;;;22.30;40.20;;;;;;4996591;28;20049;-84
2021/10/20 12:45:35;;;;;;;11.30;7.70;;;22.40;40.20;;;;;;4996622;28;20113;-84
2021/10/20 12:48:09;;;;;;;10.60;7.05;;;22.60;40.00;;;;;;5016026;28;20084;-84